YLK weather

Barrie-Orillia (Lake Simcoe Regional Airport)
Barrie-Orillia, Ontario, Canada

Public forecast

Using degrees Celsius for public forecast. Weather courtesy of forecast.io.

Closest aviation weather report (METAR) to Barrie-Orillia (Lake Simcoe Regional Airport)

Closest report is CFB Borden, 20.0 nm (37.0 km) SW. Retrieved 2019/12/12 07:00 UTC (60 minutes ago):

CYBN 120700Z AUTO 24004KT 9SM CLR M09/M14 A3049 RMK SLP338

Closest aviation forecast (TAF) to Barrie-Orillia (Lake Simcoe Regional Airport)

Forecast is more than 6 hours old.

Closest forecast is CFB Borden, 20.0 nm (37.0 km) SW. Retrieved 2019-12-12 00:33 UTC (7 hours ago):

TAF TAF CYBN 112330Z 1200/1212 25012KT P6SM BKN030 TEMPO 1200/1203 5SM -SHSN BKN020 FM120300 27008KT P6SM BKN030 TEMPO 1203/1208 BKN020 FM121000 VRB03KT P6SM FEW015 BKN120 RMK FCST BASED ON AUTO OBS NXT FCST BY 120600Z